To NAV CANADA Home Page Login to a new session Search on AWWS site Disclaimer Vers la page française équivalente Tips FAQ What's new on the site To the Forecasts and Observations / NOTAM section To "File a Flight Plan" website Publications and other links Update of the User's profile FIC Telephone Numbers My Weather Data Folder Route Weather Data Regional Weather Data Local Weather Data To the Forecasts and Observations / NOTAM section
Request Generated 06/04/2020 at 15:04:38 UTC . Weather information available at that time is displayed.

METAR/TAF

TORONTO/BILLY BISHOP TORONTO CITY AIRPORT/ON    (show WxCam)

METAR CYTZ 041500Z AUTO VRB02KT 9SM CLR 18/15 A2977 RMK SLP083 DENSITY ALT 800FT=
METAR CYTZ 041400Z AUTO 24003KT 190V270 9SM CLR 17/14 A2976 RMK SLP080 DENSITY ALT 700FT=
METAR CYTZ 041300Z AUTO 25004KT 9SM CLR 16/13 A2976 RMK SLP080 DENSITY ALT 600FT=

TAF CYTZ 041339Z 0414/0514 22008KT P6SM SKC
FM041700 24010KT P6SM BKN080 TEMPO 0417/0501 P6SM -SHRA
FM050100 24005KT P6SM FEW070 PROB30 0508/0512 1SM BR BKN004
RMK FCST BASED ON AUTO OBS. NXT FCST BY 042000Z=
Your time UTC time
Weather data provided by Environment Canada and NAV CANADA